createdAt,value
2022-11-19T00:01:24.396Z,2.70
2022-11-19T00:03:52.896Z,3.10
2022-11-19T00:06:25.137Z,3.53
2022-11-19T00:08:52.377Z,3.57
2022-11-19T00:11:41.909Z,4.90
2022-11-19T00:14:12.220Z,2.57
2022-11-19T00:16:38.937Z,2.80
2022-11-19T00:19:05.710Z,4.00
2022-11-19T00:21:32.493Z,4.07
2022-11-19T00:23:59.309Z,2.90
2022-11-19T00:26:26.045Z,3.87
2022-11-19T00:28:52.688Z,3.00
2022-11-19T00:31:19.436Z,2.93
2022-11-19T00:33:46.649Z,3.70
2022-11-19T00:36:15.337Z,3.37
2022-11-19T00:38:42.456Z,3.77
2022-11-19T00:41:09.658Z,2.53
2022-11-19T00:43:49.411Z,2.93
2022-11-19T00:46:18.633Z,2.60
2022-11-19T00:48:46.391Z,2.70
2022-11-19T00:51:13.678Z,4.50
2022-11-19T00:53:40.577Z,2.53
2022-11-19T00:56:09.855Z,3.33
2022-11-19T00:58:36.688Z,4.53
2022-11-19T01:01:04.211Z,2.53
2022-11-19T01:03:31.006Z,4.10
2022-11-19T01:05:58.039Z,2.70
2022-11-19T01:08:24.700Z,2.93
2022-11-19T01:10:51.841Z,2.70
2022-11-19T01:13:37.180Z,4.00
2022-11-19T01:16:10.407Z,4.47
2022-11-19T01:18:38.234Z,2.97
2022-11-19T01:21:05.996Z,3.43
2022-11-19T01:23:33.409Z,3.47
2022-11-19T01:26:00.650Z,2.83
2022-11-19T01:28:27.384Z,2.53
2022-11-19T01:30:54.007Z,4.13
2022-11-19T01:33:22.421Z,4.53
2022-11-19T01:36:02.324Z,2.97
2022-11-19T01:38:29.390Z,2.87
2022-11-19T01:40:56.673Z,3.30
2022-11-19T01:43:40.329Z,2.90
2022-11-19T01:46:07.466Z,4.30
2022-11-19T01:48:37.599Z,3.00
2022-11-19T01:51:15.335Z,3.17
2022-11-19T01:53:44.940Z,3.20
2022-11-19T01:56:12.262Z,6.00
2022-11-19T01:58:43.551Z,3.67
2022-11-19T02:01:11.047Z,2.67
2022-11-19T02:03:39.778Z,2.60
2022-11-19T02:06:07.585Z,2.50
2022-11-19T02:08:40.820Z,3.73
2022-11-19T02:11:13.090Z,5.17
2022-11-19T02:13:54.655Z,4.53
2022-11-19T02:16:24.009Z,2.13
2022-11-19T02:19:11.852Z,3.00
2022-11-19T02:21:53.065Z,3.00
2022-11-19T02:24:47.403Z,2.20
2022-11-19T02:27:34.970Z,2.47
2022-11-19T02:30:12.124Z,3.23
2022-11-19T02:32:51.129Z,2.30
2022-11-19T02:35:30.760Z,3.30
2022-11-19T02:38:05.860Z,2.77
2022-11-19T02:40:42.893Z,2.87
2022-11-19T02:43:41.992Z,2.80
2022-11-19T02:46:16.484Z,2.50
2022-11-19T02:48:49.710Z,2.40
2022-11-19T02:51:18.729Z,2.10
2022-11-19T02:53:47.851Z,2.40
2022-11-19T02:56:35.238Z,2.37
2022-11-19T02:59:21.477Z,3.20
2022-11-19T03:02:07.720Z,2.73
2022-11-19T03:04:34.367Z,2.70
2022-11-19T03:07:19.032Z,4.57
2022-11-19T03:09:55.099Z,2.77
2022-11-19T03:12:50.045Z,2.40
2022-11-19T03:15:44.142Z,3.70
2022-11-19T03:18:17.591Z,2.40
2022-11-19T03:21:01.459Z,3.17
2022-11-19T03:23:50.176Z,2.87
2022-11-19T03:26:35.420Z,2.70
2022-11-19T03:29:10.248Z,2.17
2022-11-19T03:31:40.953Z,2.10
2022-11-19T03:34:16.694Z,3.30
2022-11-19T03:36:45.963Z,2.90
2022-11-19T03:39:16.655Z,2.40
2022-11-19T03:41:46.588Z,5.80
2022-11-19T03:44:21.401Z,3.40
2022-11-19T03:46:55.615Z,2.63
2022-11-19T03:49:27.864Z,2.70
2022-11-19T03:52:01.649Z,3.23
2022-11-19T03:54:28.839Z,2.77
2022-11-19T03:56:57.307Z,2.83
2022-11-19T03:59:29.198Z,2.60
2022-11-19T04:02:01.325Z,2.90
2022-11-19T04:04:39.963Z,2.23
2022-11-19T04:07:14.742Z,2.40
2022-11-19T04:09:42.043Z,2.47
2022-11-19T04:12:16.511Z,2.30
2022-11-19T04:14:43.366Z,2.40
2022-11-19T04:17:10.420Z,3.10
2022-11-19T04:19:37.107Z,8.77
2022-11-19T04:22:03.788Z,10.20
2022-11-19T04:24:30.543Z,3.80
2022-11-19T04:26:57.327Z,2.50
2022-11-19T04:29:23.890Z,1.83
2022-11-19T04:31:50.524Z,2.33
2022-11-19T04:34:17.075Z,2.70
2022-11-19T04:36:45.053Z,1.77
2022-11-19T04:39:12.430Z,2.70
2022-11-19T04:41:40.638Z,3.03
2022-11-19T04:44:07.551Z,2.90
2022-11-19T04:46:34.677Z,2.93
2022-11-19T04:49:01.280Z,2.37
2022-11-19T04:51:27.846Z,3.10
2022-11-19T04:53:55.428Z,2.70
2022-11-19T04:56:22.050Z,3.13
2022-11-19T04:58:48.616Z,2.30
2022-11-19T05:01:15.282Z,2.57
2022-11-19T05:03:41.953Z,2.70
2022-11-19T05:06:08.540Z,2.27
2022-11-19T05:08:35.095Z,2.80
2022-11-19T05:11:01.632Z,2.70
2022-11-19T05:13:28.173Z,2.57
2022-11-19T05:15:54.727Z,3.03
2022-11-19T05:18:21.315Z,3.10
2022-11-19T05:20:48.088Z,2.90
2022-11-19T05:23:14.672Z,2.30
2022-11-19T05:25:41.285Z,5.40
2022-11-19T05:28:07.843Z,17.60
2022-11-19T05:30:34.538Z,4.67
2022-11-19T05:33:01.198Z,3.60
2022-11-19T05:35:28.033Z,3.50
2022-11-19T05:37:54.639Z,4.50
2022-11-19T05:40:21.186Z,3.17
2022-11-19T05:42:47.899Z,4.87
2022-11-19T05:45:14.615Z,2.40
2022-11-19T05:47:48.287Z,3.60
2022-11-19T05:50:15.273Z,2.97
2022-11-19T05:52:41.856Z,4.03
2022-11-19T05:55:08.593Z,3.43
2022-11-19T05:57:36.426Z,4.33
2022-11-19T06:00:03.906Z,3.43
2022-11-19T06:02:30.869Z,3.40
2022-11-19T06:04:57.692Z,3.67
2022-11-19T06:07:26.249Z,4.90
2022-11-19T06:09:52.960Z,12.90
2022-11-19T06:12:19.758Z,9.03
2022-11-19T06:14:46.328Z,4.43
2022-11-19T06:17:12.949Z,4.20
2022-11-19T06:19:39.546Z,5.73
2022-11-19T06:22:06.182Z,7.73
2022-11-19T06:24:32.715Z,4.80
2022-11-19T06:26:59.303Z,4.17
2022-11-19T06:29:25.972Z,6.07
2022-11-19T06:31:52.562Z,5.77
2022-11-19T06:34:19.112Z,5.00
2022-11-19T06:36:50.308Z,6.13
2022-11-19T06:39:18.014Z,4.80
2022-11-19T06:41:44.871Z,4.07
2022-11-19T06:44:11.425Z,7.90
2022-11-19T06:46:38.367Z,5.00
2022-11-19T06:49:05.709Z,5.60
2022-11-19T06:51:32.580Z,6.43
2022-11-19T06:53:59.232Z,5.00
2022-11-19T06:56:25.879Z,8.10
2022-11-19T06:58:57.990Z,4.00
2022-11-19T07:01:24.585Z,5.13
2022-11-19T07:03:51.203Z,5.63
2022-11-19T07:06:17.834Z,5.33
2022-11-19T07:08:44.460Z,6.30
2022-11-19T07:11:26.252Z,5.10
2022-11-19T07:14:00.122Z,6.10
2022-11-19T07:16:30.176Z,5.97
2022-11-19T07:18:58.607Z,4.60
2022-11-19T07:21:25.405Z,4.00
2022-11-19T07:23:51.984Z,4.50
2022-11-19T07:26:18.691Z,8.40
2022-11-19T07:28:45.224Z,6.17
2022-11-19T07:31:11.795Z,6.50
2022-11-19T07:33:39.296Z,3.93
2022-11-19T07:36:07.575Z,6.80
2022-11-19T07:38:37.099Z,5.77
2022-11-19T07:41:27.496Z,4.57
2022-11-19T07:43:54.201Z,4.93
2022-11-19T07:46:21.101Z,4.10
2022-11-19T07:48:47.675Z,5.70
2022-11-19T07:51:14.286Z,6.23
2022-11-19T07:53:42.641Z,5.53
2022-11-19T07:56:09.260Z,7.13
2022-11-19T07:58:35.810Z,9.50
2022-11-19T08:01:20.785Z,5.07
2022-11-19T08:03:54.700Z,6.73
2022-11-19T08:06:24.674Z,5.87
2022-11-19T08:08:51.225Z,5.23
2022-11-19T08:11:18.729Z,5.87
2022-11-19T08:13:45.505Z,4.80
2022-11-19T08:16:34.385Z,7.20
2022-11-19T08:19:11.380Z,5.83
2022-11-19T08:21:42.017Z,6.40
2022-11-19T08:24:09.180Z,6.20
2022-11-19T08:26:36.375Z,5.00
2022-11-19T08:29:03.292Z,6.10
2022-11-19T08:31:29.823Z,4.47
2022-11-19T08:33:56.397Z,6.63
2022-11-19T08:36:23.121Z,6.10
2022-11-19T08:38:49.780Z,4.80
2022-11-19T08:41:35.013Z,4.53
2022-11-19T08:44:02.112Z,4.60
2022-11-19T08:46:28.652Z,5.50
2022-11-19T08:48:55.266Z,6.17
2022-11-19T08:51:21.803Z,5.40
2022-11-19T08:53:50.986Z,4.43
2022-11-19T08:56:18.240Z,4.57
2022-11-19T08:58:45.112Z,5.50
2022-11-19T09:01:13.453Z,4.30
2022-11-19T09:03:40.048Z,4.50
2022-11-19T09:06:07.167Z,4.07
2022-11-19T09:08:34.335Z,6.30
2022-11-19T09:11:06.396Z,4.57
2022-11-19T09:13:33.125Z,11.60
2022-11-19T09:15:59.674Z,14.87
2022-11-19T09:18:26.256Z,11.57
2022-11-19T09:20:56.595Z,12.23
2022-11-19T09:23:24.149Z,9.70
2022-11-19T09:26:02.628Z,9.13
2022-11-19T09:28:30.213Z,8.50
2022-11-19T09:30:58.229Z,7.90
2022-11-19T09:33:25.328Z,9.93
2022-11-19T09:35:52.183Z,8.33
2022-11-19T09:38:19.221Z,9.23
2022-11-19T09:40:52.635Z,10.80
2022-11-19T09:43:51.317Z,8.07
2022-11-19T09:46:24.200Z,4.47
2022-11-19T09:48:53.975Z,5.53
2022-11-19T09:51:30.405Z,8.20
2022-11-19T09:54:03.168Z,9.77
2022-11-19T09:56:38.645Z,9.67
2022-11-19T09:59:24.983Z,15.27
2022-11-19T10:01:52.508Z,4.50
2022-11-19T10:04:24.008Z,4.13
2022-11-19T10:07:17.705Z,6.77
2022-11-19T10:09:55.990Z,6.27
2022-11-19T10:12:53.420Z,3.93
2022-11-19T10:15:27.896Z,6.90
2022-11-19T10:18:12.781Z,6.30
2022-11-19T10:21:02.439Z,8.33
2022-11-19T10:23:59.821Z,4.87
2022-11-19T10:26:40.685Z,12.40
2022-11-19T10:29:16.960Z,3.40
2022-11-19T10:31:49.433Z,6.67
2022-11-19T10:34:36.083Z,7.07
2022-11-19T10:37:10.039Z,4.00
2022-11-19T10:39:42.875Z,4.20
2022-11-19T10:42:23.223Z,8.43
2022-11-19T10:44:59.132Z,3.00
2022-11-19T10:47:44.241Z,5.40
2022-11-19T10:50:25.169Z,6.40
2022-11-19T10:52:57.783Z,4.70
2022-11-19T10:55:41.075Z,4.00
2022-11-19T10:58:10.656Z,3.30
2022-11-19T11:00:39.835Z,5.70
2022-11-19T11:03:20.905Z,5.47
2022-11-19T11:06:01.053Z,3.70
2022-11-19T11:08:27.621Z,7.20
2022-11-19T11:10:54.849Z,4.80
2022-11-19T11:14:09.320Z,5.40
2022-11-19T11:16:47.406Z,4.77
2022-11-19T11:19:18.380Z,3.43
2022-11-19T11:21:46.875Z,8.70
2022-11-19T11:24:14.430Z,4.47
2022-11-19T11:26:41.435Z,2.97
2022-11-19T11:29:13.813Z,4.03
2022-11-19T11:31:47.327Z,3.97
2022-11-19T11:34:25.955Z,2.90
2022-11-19T11:36:53.491Z,3.20
2022-11-19T11:39:29.180Z,2.70
2022-11-19T11:42:06.955Z,4.20
2022-11-19T11:44:36.936Z,4.87
2022-11-19T11:47:17.423Z,4.10
2022-11-19T11:49:46.454Z,2.97
2022-11-19T11:52:42.814Z,3.63
2022-11-19T11:55:24.375Z,3.60
2022-11-19T11:57:55.338Z,4.40
2022-11-19T12:00:32.711Z,3.83
2022-11-19T12:03:01.492Z,4.90
2022-11-19T12:05:40.564Z,3.90
2022-11-19T12:08:17.512Z,5.10
2022-11-19T12:11:02.273Z,4.10
2022-11-19T12:13:40.813Z,3.27
2022-11-19T12:16:14.460Z,3.37
2022-11-19T12:19:10.997Z,2.60
2022-11-19T12:21:50.992Z,4.33
2022-11-19T12:24:49.458Z,6.33
2022-11-19T12:27:41.453Z,2.47
2022-11-19T12:30:20.601Z,2.80
2022-11-19T12:32:50.494Z,4.00
2022-11-19T12:35:35.732Z,3.07
2022-11-19T12:38:27.788Z,3.47
2022-11-19T12:41:10.768Z,4.90
2022-11-19T12:43:58.044Z,2.40
2022-11-19T12:46:32.743Z,4.60
2022-11-19T12:49:18.535Z,3.90
2022-11-19T12:52:24.910Z,3.03
2022-11-19T12:55:26.429Z,9.23
2022-11-19T12:57:52.915Z,5.43
2022-11-19T13:00:22.372Z,2.87
2022-11-19T13:03:05.276Z,2.00
2022-11-19T13:05:38.877Z,3.53
2022-11-19T13:08:19.960Z,2.87
2022-11-19T13:10:51.233Z,2.90
2022-11-19T13:13:25.354Z,6.87
2022-11-19T13:15:59.963Z,4.60
2022-11-19T13:18:32.149Z,3.50
2022-11-19T13:21:01.377Z,3.40
2022-11-19T13:23:44.320Z,4.40
2022-11-19T13:26:19.107Z,3.37
2022-11-19T13:29:21.019Z,3.20
2022-11-19T13:31:55.191Z,3.17
2022-11-19T13:34:28.640Z,2.80
2022-11-19T13:37:11.183Z,2.60
2022-11-19T13:39:45.635Z,3.00
2022-11-19T13:42:34.335Z,3.30
2022-11-19T13:45:01.036Z,2.70
2022-11-19T13:47:45.361Z,2.77
2022-11-19T13:50:19.203Z,2.80
2022-11-19T13:53:22.247Z,2.90
2022-11-19T13:55:55.183Z,3.73
2022-11-19T13:58:34.938Z,2.90
2022-11-19T14:01:20.147Z,10.90
2022-11-19T14:04:03.399Z,2.50
2022-11-19T14:06:53.088Z,4.63
2022-11-19T14:09:54.093Z,3.10
2022-11-19T14:12:42.065Z,3.80
2022-11-19T14:15:58.384Z,3.23
2022-11-19T14:18:54.810Z,3.73
2022-11-19T14:22:03.313Z,3.47
2022-11-19T14:24:48.491Z,3.50
2022-11-19T14:27:22.121Z,4.40
2022-11-19T14:29:48.656Z,2.20
2022-11-19T14:32:16.944Z,2.27
2022-11-19T14:34:46.742Z,1.70
2022-11-19T14:37:20.671Z,3.57
2022-11-19T14:40:08.999Z,2.63
2022-11-19T14:42:55.637Z,2.40
2022-11-19T14:45:22.344Z,3.10
2022-11-19T14:47:48.871Z,3.20
2022-11-19T14:50:28.131Z,7.63
2022-11-19T14:52:57.459Z,1.50
2022-11-19T14:55:32.943Z,3.23
2022-11-19T14:58:06.901Z,3.00
2022-11-19T15:00:41.554Z,4.10
2022-11-19T15:03:15.791Z,2.40
2022-11-19T15:05:45.485Z,2.67
2022-11-19T15:08:18.158Z,2.23
2022-11-19T15:11:05.693Z,2.30
2022-11-19T15:13:43.532Z,7.10
2022-11-19T15:16:19.850Z,7.10
2022-11-19T15:18:46.530Z,6.57
2022-11-19T15:21:33.959Z,6.57
2022-11-19T15:24:03.281Z,4.47
2022-11-19T15:26:57.661Z,5.03
2022-11-19T15:29:42.436Z,4.60
2022-11-19T15:32:30.194Z,3.10
2022-11-19T15:35:32.549Z,4.37
2022-11-19T15:38:20.556Z,5.10
2022-11-19T15:40:49.746Z,3.90
2022-11-19T15:43:22.131Z,4.20
2022-11-19T15:45:57.315Z,2.30
2022-11-19T15:48:40.553Z,4.17
2022-11-19T15:51:11.877Z,3.63
2022-11-19T15:53:38.460Z,2.60
2022-11-19T15:56:12.345Z,2.37
2022-11-19T15:58:46.500Z,2.17
2022-11-19T16:01:21.098Z,2.23
2022-11-19T16:03:49.538Z,1.90
2022-11-19T16:06:19.688Z,3.60
2022-11-19T16:08:51.565Z,2.30
2022-11-19T16:11:38.432Z,3.63
2022-11-19T16:14:38.414Z,2.07
2022-11-19T16:17:29.811Z,2.13
2022-11-19T16:20:06.464Z,1.67
2022-11-19T16:22:35.643Z,1.80
2022-11-19T16:25:11.719Z,2.10
2022-11-19T16:27:42.053Z,2.23
2022-11-19T16:30:20.280Z,2.63
2022-11-19T16:32:48.188Z,1.50
2022-11-19T16:35:32.336Z,2.00
2022-11-19T16:38:00.715Z,1.70
2022-11-19T16:40:48.546Z,2.87
2022-11-19T16:43:15.296Z,1.87
2022-11-19T16:45:44.603Z,1.83
2022-11-19T16:48:51.600Z,1.67
2022-11-19T16:51:30.422Z,2.63
2022-11-19T16:53:57.073Z,2.40
2022-11-19T16:56:24.273Z,1.90
2022-11-19T16:59:01.189Z,2.23
2022-11-19T17:01:29.554Z,2.37
2022-11-19T17:04:07.365Z,2.77
2022-11-19T17:06:36.989Z,2.63
2022-11-19T17:09:05.646Z,2.60
2022-11-19T17:11:56.697Z,2.37
2022-11-19T17:14:28.048Z,2.13
2022-11-19T17:16:54.691Z,2.57
2022-11-19T17:19:25.631Z,2.17
2022-11-19T17:22:01.600Z,1.90
2022-11-19T17:24:35.553Z,1.63
2022-11-19T17:27:02.209Z,2.37
2022-11-19T17:29:28.922Z,1.77
2022-11-19T17:31:56.252Z,2.33
2022-11-19T17:34:40.396Z,1.50
2022-11-19T17:37:09.217Z,2.10
2022-11-19T17:39:35.726Z,2.00
2022-11-19T17:42:20.690Z,1.50
2022-11-19T17:44:47.237Z,1.50
2022-11-19T17:47:23.788Z,1.80
2022-11-19T17:49:51.494Z,3.33
2022-11-19T17:52:22.826Z,1.27
2022-11-19T17:54:53.544Z,1.83
2022-11-19T17:57:20.130Z,2.20
2022-11-19T17:59:46.679Z,1.53
2022-11-19T18:02:19.470Z,2.37
2022-11-19T18:04:47.195Z,2.70
2022-11-19T18:07:14.726Z,2.30
2022-11-19T18:09:41.579Z,2.30
2022-11-19T18:12:14.443Z,2.20
2022-11-19T18:14:44.624Z,2.87
2022-11-19T18:17:12.583Z,3.00
2022-11-19T18:19:39.144Z,2.23
2022-11-19T18:22:06.386Z,1.53
2022-11-19T18:24:32.942Z,1.97
2022-11-19T18:26:59.536Z,1.50
2022-11-19T18:29:30.956Z,3.97
2022-11-19T18:31:57.642Z,4.10
2022-11-19T18:34:24.607Z,2.90
2022-11-19T18:36:51.332Z,1.60
2022-11-19T18:39:17.943Z,6.70
2022-11-19T18:41:44.516Z,3.27
2022-11-19T18:44:32.408Z,3.10
2022-11-19T18:47:04.207Z,2.30
2022-11-19T18:49:33.345Z,3.97
2022-11-19T18:52:00.775Z,2.47
2022-11-19T18:54:27.463Z,2.67
2022-11-19T18:56:54.027Z,1.50
2022-11-19T18:59:21.144Z,7.87
2022-11-19T19:01:48.005Z,1.93
2022-11-19T19:04:14.868Z,2.00
2022-11-19T19:06:41.897Z,3.40
2022-11-19T19:09:10.273Z,2.33
2022-11-19T19:11:56.392Z,2.63
2022-11-19T19:14:23.006Z,2.90
2022-11-19T19:16:50.842Z,1.97
2022-11-19T19:19:19.998Z,1.70
2022-11-19T19:21:47.406Z,3.30
2022-11-19T19:24:14.565Z,2.47
2022-11-19T19:26:41.479Z,1.80
2022-11-19T19:29:08.435Z,2.13
2022-11-19T19:31:35.526Z,1.67
2022-11-19T19:34:02.641Z,2.00
2022-11-19T19:36:30.201Z,1.70
2022-11-19T19:38:56.813Z,1.73
2022-11-19T19:41:25.809Z,2.17
2022-11-19T19:43:54.640Z,1.53
2022-11-19T19:46:23.393Z,1.77
2022-11-19T19:48:52.185Z,1.77
2022-11-19T19:51:20.875Z,6.57
2022-11-19T19:53:48.662Z,2.00
2022-11-19T19:56:20.689Z,2.93
2022-11-19T19:58:48.487Z,1.60
2022-11-19T20:01:17.059Z,1.80
2022-11-19T20:03:44.540Z,1.60
2022-11-19T20:06:13.497Z,3.83
2022-11-19T20:08:41.048Z,1.67
2022-11-19T20:11:26.337Z,3.30
2022-11-19T20:13:54.512Z,1.60
2022-11-19T20:16:24.173Z,1.80
2022-11-19T20:18:52.208Z,2.03
2022-11-19T20:21:22.864Z,1.47
2022-11-19T20:23:49.766Z,2.47
2022-11-19T20:26:22.182Z,2.13
2022-11-19T20:28:53.643Z,1.73
2022-11-19T20:31:20.379Z,1.40
2022-11-19T20:33:50.933Z,2.57
2022-11-19T20:36:17.556Z,2.20
2022-11-19T20:38:47.667Z,1.97
2022-11-19T20:41:34.705Z,2.00
2022-11-19T20:44:21.494Z,3.83
2022-11-19T20:46:56.249Z,1.30
2022-11-19T20:49:25.713Z,1.27
2022-11-19T20:51:52.975Z,1.63
2022-11-19T20:54:21.255Z,2.00
2022-11-19T20:56:49.540Z,1.40
2022-11-19T20:59:16.417Z,2.27
2022-11-19T21:01:43.223Z,1.80
2022-11-19T21:04:11.308Z,3.17
2022-11-19T21:06:38.460Z,2.50
2022-11-19T21:09:05.443Z,2.77
2022-11-19T21:11:33.137Z,1.50
2022-11-19T21:13:59.904Z,2.50
2022-11-19T21:16:28.552Z,1.47
2022-11-19T21:18:55.370Z,2.13
2022-11-19T21:21:24.054Z,1.43
2022-11-19T21:23:51.717Z,2.13
2022-11-19T21:26:20.949Z,3.03
2022-11-19T21:28:50.651Z,1.67
2022-11-19T21:31:19.115Z,1.90
2022-11-19T21:33:45.983Z,1.53
2022-11-19T21:36:13.392Z,1.33
2022-11-19T21:38:40.417Z,1.43
2022-11-19T21:41:07.413Z,1.90
2022-11-19T21:43:35.083Z,2.00
2022-11-19T21:46:01.763Z,2.10
2022-11-19T21:48:28.358Z,1.57
2022-11-19T21:50:54.902Z,2.20
2022-11-19T21:53:21.845Z,1.73
2022-11-19T21:55:49.292Z,1.90
2022-11-19T21:58:16.514Z,2.40
2022-11-19T22:00:44.138Z,2.53
2022-11-19T22:03:10.786Z,2.03
2022-11-19T22:05:37.363Z,2.40
2022-11-19T22:08:04.107Z,2.00
2022-11-19T22:10:31.161Z,3.10
2022-11-19T22:12:58.750Z,2.83
2022-11-19T22:15:26.438Z,1.90
2022-11-19T22:17:53.320Z,1.83
2022-11-19T22:20:19.941Z,2.50
2022-11-19T22:22:46.865Z,2.30
2022-11-19T22:25:13.557Z,3.37
2022-11-19T22:27:41.425Z,3.27
2022-11-19T22:30:09.161Z,2.43
2022-11-19T22:32:35.785Z,2.03
2022-11-19T22:35:02.483Z,2.83
2022-11-19T22:37:29.036Z,1.77
2022-11-19T22:39:55.544Z,3.30
2022-11-19T22:42:22.116Z,2.30
2022-11-19T22:44:48.659Z,2.00
2022-11-19T22:47:15.182Z,1.53
2022-11-19T22:49:41.755Z,3.63
2022-11-19T22:52:08.324Z,2.17
2022-11-19T22:54:40.117Z,2.30
2022-11-19T22:57:08.220Z,2.10
2022-11-19T22:59:34.817Z,2.30
2022-11-19T23:02:01.468Z,1.93
2022-11-19T23:04:28.895Z,3.73
2022-11-19T23:06:55.712Z,2.03
2022-11-19T23:09:22.568Z,2.17
2022-11-19T23:12:07.863Z,2.20
2022-11-19T23:14:34.448Z,2.07
2022-11-19T23:17:01.010Z,2.03
2022-11-19T23:19:27.629Z,2.23
2022-11-19T23:21:54.193Z,2.27
2022-11-19T23:24:20.767Z,3.80
2022-11-19T23:26:47.324Z,2.13
2022-11-19T23:29:13.854Z,2.00
2022-11-19T23:31:40.713Z,1.90
2022-11-19T23:34:07.794Z,2.17
2022-11-19T23:36:37.374Z,2.17
2022-11-19T23:39:05.544Z,1.70
2022-11-19T23:41:34.921Z,1.97
2022-11-19T23:44:02.175Z,2.00
2022-11-19T23:46:31.618Z,2.43
2022-11-19T23:48:59.485Z,2.90
2022-11-19T23:51:29.321Z,2.60
2022-11-19T23:53:56.270Z,3.00
2022-11-19T23:56:24.138Z,2.37
2022-11-19T23:58:51.375Z,2.73
